Friona, TX (79035)

3:50 PM CDT on August 20, 2014 (GMT -0500)
RAWS BOOTLEG TX US | Change Station
CLOSE
Current Station
Personal Weather Station
Location: Friona, TX
Elevation: 4058 ft
Nearby Weather Stations

Elev 4058 ft 34.83 °N, 102.81 °W | Updated 47 minutes ago

Clear
Clear
94 °F
Feels Like 91 °F
N
14
Wind Variable Wind from SSW
Gusts 23.0 mph

Today
High -- | Low -- °F
--% Chance of Precip.
Yesterday
High -- | Low -- °F
Precip. -- in
7:15 AM 8:32 PM
Waning Crescent, 19% visible
Pressure 29.94 in
Visibility 10.0 miles
Clouds Clear
Heat Index 91 °F
Dew Point 52 °F
Humidity 24%
Rainfall 0.00 in
Snow Depth Not available.
UV 10 out of 12
Pollen 8.80 out of 12
Air Quality Not available.
Flu Activity Not available.
METAR KHRX 202015Z AUTO 17015G24KT 10SM CLR 34/16 A2994 RMK AO2 T03380161

More Conditions Fewer Conditions

Pressure 29.94 in
Visibility 10.0 miles
Clouds Clear
Heat Index 91 °F
Dew Point 52 °F
Humidity 24%
Rainfall 0.00 in
Snow Depth Not available.
UV 10 out of 12
Pollen 8.80 out of 12
Air Quality Not available.
Flu Activity Not available.
METAR KHRX 202015Z AUTO 17015G24KT 10SM CLR 34/16 A2994 RMK AO2 T03380161

More Conditions Fewer Conditions

Nowcast | as of 3:16 PM CDT on August 20, 2014

Through 5 PM...isolated to widely scattered showers and thunderstorms will continue to develop across western portions of the South Plains and southern Texas Panhandle. These storms will be capable of producing cloud to ground lightning...gusty winds...and very localized downpours as they move northeast at around 25 mph.

×

10-Day Weather Forecast

Almanac

Astronomy

Aug. 20, 2014 Rise Set
Actual Time 7:15 AM CDT 8:32 PM CDT
Civil Twilight 6:48 AM CDT 8:58 PM CDT
Nautical Twilight 6:17 AM CDT 9:30 PM CDT
Astronomical Twilight 5:44 AM CDT 10:03 PM CDT
Moon 3:01 AM CDT 5:15 PM CDT
Length of Visible Light 14h 10m
Length of Day
13h 17m
Tomorrow will be 1m 59s shorter.
Waning Crescent, 19% of the Moon is Illuminated
Today
Waning Crescent
Aug 25
New
Sep 2
First Quarter
Sep 8
Full
Sep 15
Last Quarter

Today's Extremes

State Highs State Lows

Community

WunderPhotos

Upload Photos

1,745,750 photos uploaded!

WunderBlogs® & News

Nearby

Snow Depth

Station Depth Elevation
No new snow has been reported.

Earthquake Activity

City Distance Mag. Time & Date
No recent earthquake activity has been reported nearby.
Minimum magnitude displayed is 2.5.

Coastal Water Temperatures

Place Temperature
No Stations Reporting

Nearby Weather Stations